createdAt,value
2024-05-09T15:31:38.228Z,99196.63
2024-05-09T15:34:41.699Z,99184.53
2024-05-09T15:37:48.718Z,99191.03
2024-05-09T15:43:57.129Z,99185.63
2024-05-09T15:47:05.028Z,99187.22
2024-05-09T15:50:17.069Z,99185.94
2024-05-09T15:53:26.673Z,99188.28
2024-05-09T15:56:30.113Z,99180.19
2024-05-09T15:59:38.000Z,99192.97
2024-05-09T16:02:43.592Z,99188.19
2024-05-09T16:05:49.483Z,99190.50
2024-05-09T16:08:52.731Z,99191.53
2024-05-09T16:11:58.234Z,99186.91
2024-05-09T16:15:01.123Z,99187.50
2024-05-09T16:18:10.491Z,99186.38
2024-05-09T16:21:15.812Z,99177.88
2024-05-09T16:24:19.157Z,99190.44
2024-05-09T16:27:24.243Z,99186.72
2024-05-09T16:30:34.095Z,99181.31
2024-05-09T16:33:42.960Z,99181.31
2024-05-09T16:36:50.868Z,99187.59
2024-05-09T16:39:53.808Z,99182.59
2024-05-09T16:42:59.723Z,99185.09
2024-05-09T16:46:05.178Z,99185.22
2024-05-09T16:49:13.053Z,99182.38
2024-05-09T16:52:16.051Z,99182.00
2024-05-09T16:55:22.158Z,99174.88
2024-05-09T16:58:26.374Z,99187.31
2024-05-09T17:01:32.749Z,99182.47
2024-05-09T17:04:37.973Z,99191.06
2024-05-09T17:07:43.718Z,99196.84
2024-05-09T17:10:50.229Z,99187.25
2024-05-09T17:13:55.882Z,99187.00
2024-05-09T17:17:01.054Z,99192.75
2024-05-09T17:20:22.568Z,99182.03
2024-05-09T17:23:35.166Z,99184.56
2024-05-09T17:26:40.847Z,99180.31
2024-05-09T17:29:45.888Z,99183.50
2024-05-09T17:32:49.267Z,99184.38
2024-05-09T17:35:56.539Z,99186.44
2024-05-09T17:39:02.084Z,99187.81
2024-05-09T17:42:05.899Z,99194.22
2024-05-09T17:45:11.659Z,99186.47
2024-05-09T17:48:15.096Z,99187.00
2024-05-09T17:51:23.050Z,99192.56
2024-05-09T17:54:26.111Z,99184.94
2024-05-09T17:57:31.799Z,99186.94
2024-05-09T18:00:40.242Z,99190.41
2024-05-09T18:03:46.134Z,99197.50
2024-05-09T18:06:53.683Z,99200.94
2024-05-09T18:09:59.435Z,99194.56
2024-05-09T18:13:02.709Z,99194.28
2024-05-09T18:16:09.215Z,99205.13
2024-05-09T18:19:12.591Z,99201.75
2024-05-09T18:22:20.377Z,99207.69
2024-05-09T18:25:23.417Z,99200.09
2024-05-09T18:28:29.226Z,99220.97
2024-05-09T18:31:32.112Z,99217.53
2024-05-09T18:34:37.585Z,99224.91
2024-05-09T18:37:43.513Z,99218.09
2024-05-09T18:40:49.747Z,99233.50
2024-05-09T18:43:53.867Z,99237.94
2024-05-09T18:46:59.860Z,99232.63
2024-05-09T18:50:03.814Z,99231.66
2024-05-09T18:53:14.322Z,99236.94
2024-05-09T18:56:19.361Z,99237.81
2024-05-09T18:59:24.849Z,99255.09
2024-05-09T19:02:30.071Z,99253.63
2024-05-09T19:05:35.047Z,99262.19
2024-05-09T19:08:42.914Z,99264.38
2024-05-09T19:11:46.503Z,99275.59
2024-05-09T19:14:51.393Z,99267.84
2024-05-09T19:17:55.063Z,99276.63
2024-05-09T19:21:00.272Z,99274.56
2024-05-09T19:24:08.213Z,99274.72
2024-05-09T19:27:13.484Z,99276.72
2024-05-09T19:30:28.991Z,99277.31
2024-05-09T19:33:39.240Z,99285.47
2024-05-09T19:36:44.883Z,99288.59
2024-05-09T19:39:49.958Z,99285.34
2024-05-09T19:42:55.480Z,99273.09
2024-05-09T19:46:00.523Z,99286.56
2024-05-09T19:49:05.381Z,99286.50
2024-05-09T19:52:10.689Z,99285.09
2024-05-09T19:55:17.034Z,99285.09
2024-05-09T19:58:22.162Z,99281.66
2024-05-09T20:01:25.730Z,99288.81
2024-05-09T20:04:30.977Z,99290.31
2024-05-09T20:07:36.193Z,99283.84
2024-05-09T20:10:43.977Z,99296.88
2024-05-09T20:13:47.552Z,99285.28
2024-05-09T20:16:52.514Z,99287.94
2024-05-09T20:19:58.089Z,99297.13
2024-05-09T20:23:00.915Z,99285.81
2024-05-09T20:26:10.348Z,99288.84
2024-05-09T20:29:13.081Z,99283.22
2024-05-09T20:32:18.567Z,99284.84
2024-05-09T20:35:21.378Z,99294.31
2024-05-09T20:38:26.803Z,99294.28
2024-05-09T20:41:33.608Z,99293.47
2024-05-09T20:44:39.069Z,99291.09
2024-05-09T20:47:41.874Z,99287.75
2024-05-09T20:50:47.566Z,99293.00
2024-05-09T20:53:50.449Z,99295.41
